Time;durP1;ratioP1;P1;durP2;ratioP2;P2;SDS_P1;SDS_P2;PMS_P1;PMS_P2;Temp;Humidity;BMP_temperature;BMP_pressure;BME280_temperature;BME280_humidity;BME280_pressure;Samples;Min_cycle;Max_cycle;Signal;HPM_P1;HPM_P2
2023/11/04 00:00:29;;;;;;;5.22;1.40;;;;;;;7.26;61.21;97481.56;10516981;28;20151;-63
2023/11/04 00:05:31;;;;;;;2.22;1.20;;;;;;;7.42;61.02;97485.31;10519175;28;20044;-64
2023/11/04 00:10:33;;;;;;;1.80;1.20;;;;;;;7.60;60.61;97481.16;10521559;28;20073;-63
2023/11/04 00:15:35;;;;;;;1.00;0.90;;;;;;;7.67;60.34;97479.63;10518595;28;20048;-64
2023/11/04 00:20:37;;;;;;;1.42;1.08;;;;;;;7.71;59.90;97470.63;10520122;28;20059;-64
2023/11/04 00:25:57;;;;;;;1.70;1.00;;;;;;;7.90;59.83;97475.88;10520078;28;20051;-63
2023/11/04 00:30:59;;;;;;;1.85;0.80;;;;;;;8.08;59.45;97475.22;10516995;28;20056;-64
2023/11/04 00:36:22;;;;;;;1.52;1.00;;;;;;;8.19;59.19;97465.53;10517787;28;20063;-64
2023/11/04 00:41:44;;;;;;;1.45;0.70;;;;;;;8.20;58.96;97467.16;10517652;28;20109;-64
2023/11/04 00:47:06;;;;;;;0.75;0.70;;;;;;;8.31;58.81;97474.84;10512961;28;20046;-64
2023/11/04 00:52:28;;;;;;;3.95;1.15;;;;;;;8.36;58.70;97477.88;10501385;28;20071;-64
2023/11/04 00:57:50;;;;;;;2.33;0.70;;;;;;;8.38;58.60;97475.97;10518021;28;20913;-63
2023/11/04 01:03:12;;;;;;;1.30;0.80;;;;;;;8.44;58.47;97478.00;10514271;28;20956;-64
2023/11/04 01:08:34;;;;;;;1.73;1.30;;;;;;;8.44;58.17;97485.00;10516964;28;20127;-63
2023/11/04 01:13:57;;;;;;;0.70;0.70;;;;;;;8.45;58.12;97476.19;10516181;28;20126;-64
2023/11/04 01:19:19;;;;;;;0.57;0.57;;;;;;;8.46;57.99;97464.84;10498941;28;20106;-64
2023/11/04 01:24:41;;;;;;;1.50;1.10;;;;;;;8.43;58.03;97454.69;10502305;28;20050;-64
2023/11/04 01:30:04;;;;;;;0.98;0.88;;;;;;;8.44;57.76;97444.16;10514300;28;20071;-64
2023/11/04 01:35:26;;;;;;;0.90;0.70;;;;;;;8.49;57.83;97433.28;10502836;28;20468;-64
2023/11/04 01:40:49;;;;;;;1.45;0.88;;;;;;;8.47;57.41;97427.41;10515274;28;20048;-64
2023/11/04 01:46:17;;;;;;;3.03;1.50;;;;;;;8.50;57.70;97427.13;10515329;28;20078;-64
2023/11/04 01:51:40;;;;;;;0.70;0.70;;;;;;;8.48;57.47;97423.84;10498599;28;20058;-64
2023/11/04 01:57:02;;;;;;;0.55;0.50;;;;;;;8.48;57.35;97427.28;10500377;28;20134;-64
2023/11/04 02:02:25;;;;;;;0.68;0.68;;;;;;;8.49;57.32;97420.25;10512703;28;20258;-63
2023/11/04 02:07:47;;;;;;;0.60;0.60;;;;;;;8.50;57.23;97411.50;10514930;28;20224;-64
2023/11/04 02:13:09;;;;;;;0.85;0.70;;;;;;;8.52;57.24;97414.78;10498774;28;20496;-64
2023/11/04 02:18:31;;;;;;;0.95;0.73;;;;;;;8.49;56.59;97412.44;10515543;28;20055;-63
2023/11/04 02:23:53;;;;;;;0.50;0.50;;;;;;;8.61;56.82;97419.97;10514700;28;20048;-63
2023/11/04 02:29:15;;;;;;;0.95;0.63;;;;;;;8.57;56.74;97418.63;10499064;28;20450;-63
2023/11/04 02:34:37;;;;;;;0.75;0.57;;;;;;;8.63;56.66;97422.44;10513860;28;20052;-64
2023/11/04 02:39:59;;;;;;;0.52;0.52;;;;;;;8.63;56.50;97415.44;10512650;28;20381;-64
2023/11/04 02:45:21;;;;;;;3.75;0.70;;;;;;;8.56;56.77;97414.38;10513246;28;20127;-64
2023/11/04 02:50:43;;;;;;;0.90;0.90;;;;;;;8.44;56.87;97414.66;10498386;28;20910;-64
2023/11/04 02:56:05;;;;;;;2.90;0.82;;;;;;;8.41;56.97;97396.69;10513310;28;20055;-64
2023/11/04 03:01:28;;;;;;;1.25;0.98;;;;;;;8.30;57.34;97389.88;10512846;28;20092;-64
2023/11/04 03:06:50;;;;;;;0.90;0.68;;;;;;;8.30;57.14;97389.06;10512527;28;20105;-64
2023/11/04 03:12:12;;;;;;;2.63;0.80;;;;;;;8.27;57.46;97389.31;10511420;28;20563;-63
2023/11/04 03:17:35;;;;;;;1.20;0.77;;;;;;;8.38;57.18;97386.56;10513072;28;20412;-63
2023/11/04 03:22:57;;;;;;;2.38;1.30;;;;;;;8.34;57.49;97382.63;10511284;28;20144;-63
2023/11/04 03:28:19;;;;;;;0.88;0.82;;;;;;;8.41;57.42;97387.13;10511179;28;20052;-63
2023/11/04 03:33:41;;;;;;;1.08;0.98;;;;;;;8.45;57.39;97387.66;10500371;28;20074;-63
2023/11/04 03:39:03;;;;;;;2.88;1.23;;;;;;;8.46;57.38;97368.47;10522251;28;20048;-64
2023/11/04 03:44:25;;;;;;;0.93;0.80;;;;;;;8.48;57.48;97369.97;10521165;28;20048;-64
2023/11/04 03:49:47;;;;;;;2.90;1.25;;;;;;;8.59;57.37;97358.53;10493229;28;20063;-63
2023/11/04 03:55:09;;;;;;;0.98;0.75;;;;;;;8.59;57.20;97348.97;10517881;28;20047;-64
2023/11/04 04:00:32;;;;;;;1.80;1.00;;;;;;;8.50;57.43;97351.59;10516542;28;20059;-63
2023/11/04 04:05:54;;;;;;;1.27;1.00;;;;;;;8.48;57.49;97343.94;10506524;28;20195;-64
2023/11/04 04:11:22;;;;;;;2.55;0.93;;;;;;;8.55;57.61;97341.56;10516227;28;20490;-63
2023/11/04 04:16:45;;;;;;;1.13;0.80;;;;;;;8.61;57.51;97335.78;10519432;28;20052;-63
2023/11/04 04:22:08;;;;;;;1.27;0.95;;;;;;;8.48;57.74;97330.06;10518644;28;20495;-63
2023/11/04 04:27:30;;;;;;;1.08;0.70;;;;;;;8.56;57.71;97320.59;10519708;28;20109;-63
2023/11/04 04:32:52;;;;;;;1.50;1.10;;;;;;;8.65;57.71;97322.34;10518522;28;20047;-63
2023/11/04 04:38:14;;;;;;;1.42;1.00;;;;;;;8.73;57.64;97322.44;10518485;28;20048;-64
2023/11/04 04:43:38;;;;;;;2.08;0.88;;;;;;;8.72;57.75;97313.00;10517930;28;20134;-63
2023/11/04 04:49:00;;;;;;;0.80;0.75;;;;;;;8.69;57.88;97317.66;10518755;28;20148;-63
2023/11/04 04:54:22;;;;;;;1.92;0.88;;;;;;;8.62;58.01;97317.44;10515341;28;20511;-64
2023/11/04 04:59:44;;;;;;;1.58;0.98;;;;;;;8.75;57.82;97306.69;10502617;28;20232;-64
2023/11/04 05:05:07;;;;;;;1.48;0.90;;;;;;;8.75;57.94;97301.47;10514105;28;20137;-63
2023/11/04 05:10:28;;;;;;;1.50;0.70;;;;;;;8.69;58.13;97287.22;10514904;28;20040;-63
2023/11/04 05:15:50;;;;;;;0.85;0.80;;;;;;;8.67;58.27;97283.94;10515570;28;20559;-63
2023/11/04 05:21:13;;;;;;;2.08;0.80;;;;;;;8.66;58.31;97274.50;10517525;28;20125;-63
2023/11/04 05:26:40;;;;;;;3.13;1.50;;;;;;;8.72;58.33;97265.25;10516556;28;20443;-63
2023/11/04 05:32:02;;;;;;;0.80;0.80;;;;;;;8.73;58.26;97267.72;10515168;28;20054;-63
2023/11/04 05:37:24;;;;;;;1.33;0.90;;;;;;;8.86;58.02;97249.16;10515893;28;20059;-64
2023/11/04 05:42:46;;;;;;;0.90;0.70;;;;;;;8.84;58.02;97249.28;10514903;28;20048;-64
2023/11/04 05:48:08;;;;;;;1.08;0.90;;;;;;;8.78;58.35;97243.84;10513611;28;20048;-64
2023/11/04 05:53:30;;;;;;;3.95;1.30;;;;;;;8.78;58.36;97244.66;10508764;28;20044;-64
2023/11/04 05:58:52;;;;;;;1.20;0.82;;;;;;;8.59;58.65;97229.13;10512135;28;20052;-64
2023/11/04 06:04:14;;;;;;;0.75;0.75;;;;;;;8.59;58.70;97231.72;10502672;28;20178;-65
2023/11/04 06:09:36;;;;;;;0.73;0.73;;;;;;;8.67;58.71;97231.00;10501789;28;20058;-64
2023/11/04 06:14:58;;;;;;;1.05;0.70;;;;;;;8.61;58.70;97213.34;10510084;28;20052;-64
2023/11/04 06:20:21;;;;;;;1.08;0.80;;;;;;;8.65;58.87;97219.91;10511866;28;20063;-64
2023/11/04 06:25:42;;;;;;;0.93;0.77;;;;;;;8.61;58.94;97195.94;10514312;28;20566;-64
2023/11/04 06:31:10;;;;;;;0.88;0.70;;;;;;;8.55;59.33;97195.69;10510975;28;20063;-64
2023/11/04 06:36:32;;;;;;;1.10;1.00;;;;;;;8.52;59.27;97183.78;10498965;28;20525;-64
2023/11/04 06:41:54;;;;;;;0.88;0.73;;;;;;;8.55;59.49;97190.47;10497342;28;20071;-64
2023/11/04 06:47:16;;;;;;;0.82;0.80;;;;;;;8.54;59.54;97179.25;10494354;28;20063;-64
2023/11/04 06:52:38;;;;;;;0.90;0.68;;;;;;;8.52;59.65;97180.38;10506980;28;20131;-63
2023/11/04 06:57:40;;;;;;;0.88;0.70;;;;;;;8.44;59.90;97169.84;10512407;28;20131;-63
2023/11/04 07:02:42;;;;;;;0.88;0.80;;;;;;;8.48;59.84;97176.41;10505804;28;20051;-63
2023/11/04 07:07:47;;;;;;;0.70;0.70;;;;;;;8.49;60.02;97162.41;10516867;28;20040;-63
2023/11/04 07:12:48;;;;;;;1.23;0.75;;;;;;;8.64;59.89;97169.59;10520357;28;20408;-63
2023/11/04 07:17:51;;;;;;;0.98;0.70;;;;;;;8.69;59.83;97162.16;10508586;28;20097;-64
2023/11/04 07:22:53;;;;;;;0.85;0.85;;;;;;;8.76;59.91;97154.56;10507886;28;20124;-63
2023/11/04 07:27:58;;;;;;;0.80;0.80;;;;;;;8.95;59.58;97146.63;10509905;28;20052;-64
2023/11/04 07:33:01;;;;;;;1.73;0.68;;;;;;;9.08;59.40;97154.88;10505370;28;20044;-64
2023/11/04 07:38:04;;;;;;;1.05;0.90;;;;;;;8.81;59.69;97152.34;10511395;28;20377;-65
2023/11/04 07:43:06;;;;;;;4.55;1.27;;;;;;;9.05;59.56;97143.94;10516613;28;20063;-68
2023/11/04 07:48:08;;;;;;;0.73;0.73;;;;;;;9.37;59.16;97129.38;10518909;28;20117;-69
2023/11/04 07:53:10;;;;;;;1.00;0.90;;;;;;;9.30;58.91;97127.53;10505270;28;20488;-70
2023/11/04 07:58:12;;;;;;;1.90;0.93;;;;;;;9.23;59.21;97119.50;10518502;28;20141;-69
2023/11/04 08:03:15;;;;;;;0.77;0.70;;;;;;;9.42;58.98;97102.84;10520893;28;20051;-69
2023/11/04 08:08:19;;;;;;;0.95;0.88;;;;;;;9.41;58.97;97102.00;10517522;28;20048;-68
2023/11/04 08:13:22;;;;;;;1.38;0.90;;;;;;;9.62;58.56;97093.84;10520498;28;20044;-68
2023/11/04 08:18:31;;;;;;;1.35;0.77;;;;;;;9.67;58.66;97096.81;10520542;28;20135;-68
2023/11/04 08:23:33;;;;;;;1.33;0.85;;;;;;;9.72;58.54;97098.97;10513556;28;20050;-69
2023/11/04 08:28:35;;;;;;;1.95;1.05;;;;;;;9.80;58.50;97086.78;10511971;28;20040;-69
2023/11/04 08:33:38;;;;;;;1.20;0.70;;;;;;;10.36;57.60;97067.88;10517356;28;20056;-69
2023/11/04 08:38:40;;;;;;;0.90;0.80;;;;;;;10.52;57.19;97079.19;10515029;28;20415;-69
2023/11/04 08:43:42;;;;;;;1.95;0.68;;;;;;;10.75;56.51;97068.13;10506811;28;20052;-69
2023/11/04 08:48:45;;;;;;;1.15;0.80;;;;;;;10.76;56.19;97061.94;10508405;28;20048;-69
2023/11/04 08:53:48;;;;;;;1.67;1.20;;;;;;;10.73;56.31;97042.16;10513018;28;20070;-69
2023/11/04 08:58:53;;;;;;;2.45;1.23;;;;;;;10.58;56.42;97035.94;10506337;28;20120;-69
2023/11/04 09:03:55;;;;;;;1.40;0.90;;;;;;;10.70;56.14;97024.19;10517542;28;20044;-69
2023/11/04 09:09:07;;;;;;;2.63;0.68;;;;;;;10.71;55.69;97010.13;10517530;28;20043;-69
2023/11/04 09:14:09;;;;;;;3.03;1.33;;;;;;;10.56;56.02;97001.31;10515956;28;20048;-68
2023/11/04 09:19:11;;;;;;;3.53;1.00;;;;;;;10.59;56.04;97000.97;10504893;28;20719;-69
2023/11/04 09:24:13;;;;;;;2.05;0.75;;;;;;;10.79;55.88;96984.00;10507297;28;20052;-71
2023/11/04 09:29:15;;;;;;;0.60;0.60;;;;;;;10.69;55.87;96977.28;10511557;28;20391;-69
2023/11/04 09:34:17;;;;;;;0.82;0.80;;;;;;;10.56;56.33;96964.75;10509883;28;20052;-69
2023/11/04 09:39:20;;;;;;;0.80;0.70;;;;;;;10.49;56.08;96948.06;10510328;28;20114;-69
2023/11/04 09:44:25;;;;;;;0.75;0.75;;;;;;;10.95;55.66;96944.75;10510954;28;20117;-69
2023/11/04 09:49:32;;;;;;;1.23;0.80;;;;;;;11.10;55.58;96944.94;10511707;28;20084;-69
2023/11/04 09:54:36;;;;;;;1.38;0.85;;;;;;;11.13;55.32;96937.56;10511161;28;21028;-71
2023/11/04 09:59:40;;;;;;;4.28;2.38;;;;;;;10.69;55.88;96912.78;10505115;28;20052;-70
2023/11/04 10:04:42;;;;;;;3.55;1.65;;;;;;;10.37;56.41;96895.34;10506858;28;20102;-70
2023/11/04 10:09:44;;;;;;;1.98;1.27;;;;;;;10.34;56.52;96900.03;10507146;28;20138;-70
2023/11/04 10:14:47;;;;;;;1.42;0.82;;;;;;;10.34;56.50;96897.44;10505480;28;20052;-70
2023/11/04 10:19:49;;;;;;;2.95;1.33;;;;;;;10.41;56.41;96890.59;10501239;28;20474;-71
2023/11/04 10:24:52;;;;;;;7.32;2.72;;;;;;;10.46;56.25;96880.47;10508934;28;20491;-71
2023/11/04 10:29:58;;;;;;;3.25;2.10;;;;;;;10.50;56.17;96866.09;10510657;28;20122;-71
2023/11/04 10:35:13;;;;;;;3.35;1.13;;;;;;;10.47;55.90;96850.75;10497634;28;20460;-70
2023/11/04 10:40:16;;;;;;;4.78;1.73;;;;;;;10.68;55.78;96843.19;10511565;28;20044;-71
2023/11/04 10:50:41;;;;;;;3.15;1.45;;;;;;;10.10;56.40;96817.31;10542570;27;20572;-71
2023/11/04 10:55:54;;;;;;;1.35;0.90;;;;;;;10.12;56.40;96794.47;10545722;28;20113;-70
2023/11/04 11:00:56;;;;;;;1.23;0.88;;;;;;;10.06;56.61;96779.44;10529198;28;20213;-69
2023/11/04 11:06:01;;;;;;;2.97;0.80;;;;;;;10.20;56.66;96757.06;10546079;28;20414;-69
2023/11/04 11:11:14;;;;;;;1.42;0.80;;;;;;;10.21;56.28;96735.22;10547786;28;20076;-69
2023/11/04 11:16:18;;;;;;;0.88;0.85;;;;;;;10.12;56.81;96730.97;10544800;28;20040;-70
2023/11/04 11:21:21;;;;;;;1.15;0.90;;;;;;;9.93;57.12;96726.13;10545497;28;20048;-71
2023/11/04 11:26:23;;;;;;;1.10;0.70;;;;;;;10.03;56.96;96726.75;10545868;28;20085;-68
2023/11/04 11:31:27;;;;;;;0.95;0.75;;;;;;;10.00;57.21;96727.06;10546538;28;20763;-68
2023/11/04 11:36:31;;;;;;;0.98;0.75;;;;;;;10.08;57.57;96724.44;10529007;28;20105;-67
2023/11/04 11:41:37;;;;;;;2.08;0.73;;;;;;;10.08;57.85;96698.34;10545016;28;20061;-69
2023/11/04 11:46:45;;;;;;;1.35;0.85;;;;;;;10.02;57.67;96673.72;10546356;28;20056;-67
2023/11/04 11:51:48;;;;;;;0.90;0.77;;;;;;;10.04;57.78;96665.72;10544016;28;20053;-69
2023/11/04 11:56:51;;;;;;;1.98;0.93;;;;;;;9.97;57.99;96643.88;10544628;28;20063;-70
2023/11/04 12:01:53;;;;;;;0.93;0.93;;;;;;;10.08;58.19;96630.47;10520639;28;20139;-69
2023/11/04 12:06:55;;;;;;;1.38;0.90;;;;;;;10.08;58.02;96599.13;10517490;28;20081;-68
2023/11/04 12:11:58;;;;;;;0.60;0.60;;;;;;;10.14;58.24;96604.50;10534941;27;20487;-68
2023/11/04 12:16:59;;;;;;;0.65;0.65;;;;;;;9.85;58.88;96603.47;10520686;28;20075;-68
2023/11/04 12:22:02;;;;;;;0.98;0.70;;;;;;;9.72;59.20;96592.72;10501697;28;20111;-68
2023/11/04 12:27:04;;;;;;;1.35;0.95;;;;;;;9.77;59.38;96580.00;10519867;28;21160;-68
2023/11/04 12:32:06;;;;;;;0.77;0.73;;;;;;;9.77;59.12;96575.56;10520368;28;20684;-68
2023/11/04 12:37:09;;;;;;;0.82;0.63;;;;;;;9.76;59.18;96565.31;10498226;28;20048;-68
2023/11/04 12:42:11;;;;;;;1.23;0.75;;;;;;;9.56;59.74;96547.38;10499626;28;20089;-69
2023/11/04 12:47:14;;;;;;;1.08;0.88;;;;;;;9.55;59.48;96540.56;10500837;28;20067;-68
2023/11/04 12:52:17;;;;;;;1.27;0.80;;;;;;;9.46;59.91;96512.06;10512876;28;20122;-70
2023/11/04 12:57:21;;;;;;;0.95;0.70;;;;;;;9.30;60.24;96501.69;10518242;28;20048;-70
2023/11/04 13:02:24;;;;;;;1.58;0.90;;;;;;;9.12;61.01;96509.69;10517481;28;20059;-71
2023/11/04 13:07:26;;;;;;;1.50;0.77;;;;;;;8.94;61.77;96477.78;10515614;28;20047;-71
2023/11/04 13:12:28;;;;;;;1.02;0.68;;;;;;;8.91;62.36;96467.69;10517895;28;20181;-70
2023/11/04 13:17:30;;;;;;;2.78;0.65;;;;;;;9.02;61.94;96469.94;10517000;28;20047;-70
2023/11/04 13:22:32;;;;;;;0.80;0.73;;;;;;;9.17;62.42;96450.03;10516049;28;20484;-71
2023/11/04 13:27:34;;;;;;;2.22;0.85;;;;;;;9.16;61.92;96424.13;10514790;28;20139;-72
2023/11/04 13:32:37;;;;;;;1.38;0.88;;;;;;;9.23;61.77;96425.09;10493590;28;20040;-72
2023/11/04 13:37:39;;;;;;;1.23;0.90;;;;;;;9.23;61.89;96404.22;10517941;28;20180;-71
2023/11/04 13:42:41;;;;;;;10.73;0.93;;;;;;;9.21;62.38;96406.19;10499447;28;20048;-69
2023/11/04 13:47:44;;;;;;;1.00;0.82;;;;;;;9.09;62.34;96394.50;10516118;28;20051;-69
2023/11/04 13:52:46;;;;;;;1.27;0.88;;;;;;;9.23;62.47;96393.81;10513930;28;20063;-71
2023/11/04 13:57:48;;;;;;;1.92;0.85;;;;;;;9.20;62.99;96386.34;10511970;28;20043;-72
2023/11/04 14:02:50;;;;;;;1.95;0.70;;;;;;;9.02;63.04;96386.53;10509519;28;20048;-69
2023/11/04 14:07:52;;;;;;;1.60;0.52;;;;;;;8.93;63.64;96378.91;10505588;28;20594;-69
2023/11/04 14:12:54;;;;;;;0.70;0.70;;;;;;;8.96;63.64;96357.72;10505119;28;20110;-69
2023/11/04 14:17:57;;;;;;;2.85;0.98;;;;;;;9.00;63.88;96356.41;10490909;28;20056;-69
2023/11/04 14:23:00;;;;;;;0.45;0.45;;;;;;;9.02;64.07;96344.03;10514129;28;20044;-70
2023/11/04 14:28:02;;;;;;;0.75;0.70;;;;;;;8.93;64.25;96345.06;10510273;28;20495;-70
2023/11/04 14:33:07;;;;;;;0.68;0.63;;;;;;;8.80;64.46;96319.50;10513405;28;20044;-71
2023/11/04 14:38:09;;;;;;;0.50;0.50;;;;;;;8.97;64.28;96300.25;10493207;28;20090;-71
2023/11/04 14:43:12;;;;;;;1.15;0.63;;;;;;;9.11;64.18;96289.09;10515322;28;20050;-70
2023/11/04 14:48:14;;;;;;;0.85;0.50;;;;;;;9.17;64.00;96285.00;10513220;28;20059;-70
2023/11/04 14:53:16;;;;;;;0.50;0.50;;;;;;;8.92;64.86;96270.44;10510172;28;20048;-70
2023/11/04 14:58:18;;;;;;;0.50;0.40;;;;;;;8.87;64.75;96268.38;10514772;28;20048;-70
2023/11/04 15:03:23;;;;;;;0.50;0.50;;;;;;;8.93;64.53;96261.66;10511478;28;20050;-70
2023/11/04 15:08:25;;;;;;;0.40;0.40;;;;;;;8.84;64.66;96245.25;10513565;28;20047;-69
2023/11/04 15:13:28;;;;;;;1.23;0.60;;;;;;;8.77;64.78;96244.31;10495451;28;20389;-70
2023/11/04 15:18:30;;;;;;;1.15;0.70;;;;;;;8.79;65.11;96245.75;10512819;28;20048;-70
2023/11/04 15:23:32;;;;;;;0.70;0.70;;;;;;;8.83;64.44;96234.00;10511522;28;20079;-70
2023/11/04 15:28:34;;;;;;;1.05;0.60;;;;;;;8.77;64.93;96224.25;10514510;28;20052;-69
2023/11/04 15:33:37;;;;;;;0.73;0.60;;;;;;;8.62;65.24;96244.22;10515966;28;20043;-70
2023/11/04 15:38:39;;;;;;;2.53;1.08;;;;;;;8.57;66.37;96225.66;10518868;28;20048;-69
2023/11/04 15:43:41;;;;;;;1.25;0.77;;;;;;;8.73;65.37;96224.78;10522233;28;20067;-69
2023/11/04 15:48:43;;;;;;;0.52;0.52;;;;;;;8.69;65.71;96223.50;10518794;28;20163;-69
2023/11/04 15:53:46;;;;;;;0.50;0.50;;;;;;;8.67;65.75;96221.06;10521541;28;20406;-69
2023/11/04 15:58:48;;;;;;;0.73;0.73;;;;;;;8.65;65.39;96201.38;10519666;28;20457;-69
2023/11/04 16:03:51;;;;;;;1.38;0.98;;;;;;;8.65;65.82;96201.38;10521308;28;20043;-69
2023/11/04 16:08:54;;;;;;;0.52;0.52;;;;;;;8.66;65.57;96192.59;10509844;28;20055;-69
2023/11/04 16:13:56;;;;;;;0.57;0.50;;;;;;;8.75;65.59;96181.94;10517461;28;20131;-69
2023/11/04 16:18:58;;;;;;;0.98;0.68;;;;;;;8.68;65.94;96175.81;10514301;28;20127;-69
2023/11/04 16:24:00;;;;;;;1.10;0.90;;;;;;;8.63;65.83;96172.91;10511499;28;20040;-70
2023/11/04 16:29:03;;;;;;;0.43;0.43;;;;;;;8.63;66.36;96177.28;10518117;28;20568;-70
2023/11/04 16:34:06;;;;;;;1.63;0.95;;;;;;;8.72;66.11;96173.66;10500338;28;20052;-70
2023/11/04 16:39:08;;;;;;;0.73;0.63;;;;;;;8.71;66.36;96169.44;10518146;28;20044;-65
2023/11/04 16:44:10;;;;;;;0.85;0.63;;;;;;;8.75;65.95;96179.34;10517008;28;20064;-66
2023/11/04 16:49:12;;;;;;;0.73;0.70;;;;;;;8.87;65.74;96179.78;10516480;28;20147;-65
2023/11/04 16:54:14;;;;;;;0.50;0.50;;;;;;;8.89;65.70;96175.22;10508997;28;20044;-67
2023/11/04 16:59:18;;;;;;;0.75;0.65;;;;;;;8.82;65.83;96182.91;10496454;28;20139;-66
2023/11/04 17:04:20;;;;;;;1.23;0.70;;;;;;;8.99;65.33;96181.00;10518649;28;20403;-65
2023/11/04 17:09:22;;;;;;;1.98;0.70;;;;;;;9.16;65.10;96179.09;10534394;27;20055;-65
2023/11/04 17:14:24;;;;;;;1.00;0.77;;;;;;;9.08;65.24;96186.97;10519949;28;20113;-66
2023/11/04 17:19:26;;;;;;;0.50;0.50;;;;;;;9.03;65.41;96179.69;10500552;28;20043;-66
2023/11/04 17:24:28;;;;;;;0.60;0.60;;;;;;;9.16;65.20;96198.16;10517584;28;20403;-66
2023/11/04 17:29:31;;;;;;;0.45;0.40;;;;;;;9.37;64.64;96198.34;10518463;28;20136;-65
2023/11/04 17:34:33;;;;;;;0.57;0.50;;;;;;;9.34;64.88;96193.44;10518163;28;20044;-66
2023/11/04 17:39:36;;;;;;;0.40;0.40;;;;;;;9.34;64.70;96193.44;10517492;28;20051;-66
2023/11/04 17:44:39;;;;;;;0.80;0.80;;;;;;;9.42;64.49;96188.16;10510399;28;20081;-66
2023/11/04 17:49:41;;;;;;;0.30;0.30;;;;;;;9.50;64.31;96190.72;10510509;28;20625;-66
2023/11/04 17:54:43;;;;;;;0.70;0.70;;;;;;;9.34;64.86;96193.44;10513808;28;20043;-66
2023/11/04 17:59:45;;;;;;;0.70;0.70;;;;;;;9.45;64.36;96184.41;10506887;28;20161;-66
2023/11/04 18:04:47;;;;;;;3.55;1.13;;;;;;;9.41;64.49;96197.00;10492999;28;20997;-66
2023/11/04 18:09:50;;;;;;;1.02;0.75;;;;;;;9.41;65.03;96204.81;10474335;28;20549;-66
2023/11/04 18:14:52;;;;;;;0.93;0.90;;;;;;;9.52;64.46;96186.13;10498151;28;20040;-66
2023/11/04 18:19:56;;;;;;;1.05;0.93;;;;;;;9.51;64.10;96197.56;10504807;28;20103;-66
2023/11/04 18:24:58;;;;;;;1.77;1.00;;;;;;;9.50;64.27;96189.94;10501009;28;20485;-66
2023/11/04 18:30:00;;;;;;;1.02;0.75;;;;;;;9.40;64.47;96190.16;10500163;28;20051;-66
2023/11/04 18:35:03;;;;;;;0.80;0.65;;;;;;;9.31;64.56;96167.75;10513361;28;20403;-65
2023/11/04 18:40:07;;;;;;;0.98;0.88;;;;;;;9.41;64.75;96162.28;10510746;28;20470;-66
2023/11/04 18:45:09;;;;;;;2.33;0.90;;;;;;;9.35;64.99;96148.16;10509287;28;20047;-66
2023/11/04 18:50:11;;;;;;;0.88;0.70;;;;;;;9.21;65.23;96140.28;10509127;28;20052;-66
2023/11/04 18:55:15;;;;;;;0.98;0.73;;;;;;;9.08;65.65;96130.44;10507564;28;20830;-66
2023/11/04 19:00:17;;;;;;;0.93;0.80;;;;;;;9.08;65.72;96132.22;10512959;28;20377;-66
2023/11/04 19:05:19;;;;;;;0.82;0.63;;;;;;;9.20;65.76;96129.03;10524065;28;20334;-66
2023/11/04 19:10:23;;;;;;;1.15;0.80;;;;;;;9.27;65.71;96126.53;10500078;28;20055;-66
2023/11/04 19:15:25;;;;;;;1.92;0.65;;;;;;;9.38;65.66;96123.53;10517593;28;20178;-66
2023/11/04 19:20:27;;;;;;;1.30;0.90;;;;;;;9.35;65.63;96116.88;10501361;28;20214;-65
2023/11/04 19:25:30;;;;;;;1.15;0.90;;;;;;;9.44;65.89;96121.00;10515645;28;20972;-66
2023/11/04 19:30:32;;;;;;;1.58;0.95;;;;;;;9.54;65.91;96103.31;10515791;28;20726;-67
2023/11/04 19:35:35;;;;;;;1.98;1.13;;;;;;;9.57;65.84;96089.09;10513614;28;20122;-66
2023/11/04 19:40:37;;;;;;;1.88;1.30;;;;;;;9.55;65.99;96094.50;10500383;28;20039;-64
2023/11/04 19:45:39;;;;;;;1.20;0.90;;;;;;;9.55;66.11;96107.53;10515700;28;20141;-67
2023/11/04 19:50:43;;;;;;;0.73;0.70;;;;;;;9.68;66.16;96106.16;10519948;28;20070;-65
2023/11/04 19:55:45;;;;;;;1.48;1.15;;;;;;;9.77;66.07;96111.09;10520401;28;20048;-66
2023/11/04 20:00:47;;;;;;;0.63;0.63;;;;;;;9.83;66.21;96109.59;10515362;28;20135;-66
2023/11/04 20:05:50;;;;;;;1.45;0.80;;;;;;;10.01;65.69;96113.44;10515557;28;20404;-66
2023/11/04 20:10:52;;;;;;;0.93;0.70;;;;;;;10.02;65.83;96104.63;10498788;28;20060;-66
2023/11/04 20:15:57;;;;;;;0.50;0.50;;;;;;;10.06;65.78;96110.28;10516849;28;20055;-65
2023/11/04 20:20:59;;;;;;;8.77;3.63;;;;;;;10.18;65.37;96101.84;10516129;28;20167;-65
2023/11/04 20:26:02;;;;;;;2.28;1.13;;;;;;;10.21;65.21;96104.09;10515837;28;20135;-65
2023/11/04 20:31:04;;;;;;;2.35;1.05;;;;;;;10.27;65.27;96097.31;10513621;28;20087;-66
2023/11/04 20:36:08;;;;;;;1.95;0.88;;;;;;;10.41;64.85;96094.69;10513801;28;21072;-66
2023/11/04 20:41:10;;;;;;;2.72;1.00;;;;;;;10.30;65.00;96087.31;10497437;28;20146;-66
2023/11/04 20:46:13;;;;;;;1.15;0.90;;;;;;;10.19;65.45;96081.75;10514191;28;20050;-67
2023/11/04 20:51:16;;;;;;;1.55;0.95;;;;;;;10.18;65.19;96067.06;10513929;28;20562;-66
2023/11/04 20:56:18;;;;;;;2.22;1.13;;;;;;;10.24;64.98;96061.13;10516533;28;20044;-65
2023/11/04 21:01:21;;;;;;;1.48;1.00;;;;;;;10.24;65.11;96084.63;10514309;28;20377;-65
2023/11/04 21:06:23;;;;;;;2.30;1.02;;;;;;;10.36;64.84;96083.16;10527914;27;20499;-66
2023/11/04 21:11:26;;;;;;;2.42;0.80;;;;;;;10.34;64.88;96095.59;10495140;28;20113;-64
2023/11/04 21:16:28;;;;;;;0.60;0.50;;;;;;;10.22;65.00;96100.47;10492310;28;20470;-64
2023/11/04 21:21:30;;;;;;;0.50;0.50;;;;;;;10.30;64.71;96102.16;10512675;28;21530;-66
2023/11/04 21:26:32;;;;;;;1.25;0.90;;;;;;;10.32;64.59;96101.00;10513973;28;20388;-66
2023/11/04 21:31:37;;;;;;;0.60;0.60;;;;;;;10.28;64.61;96098.94;10510767;28;20048;-66
2023/11/04 21:36:40;;;;;;;1.77;1.00;;;;;;;10.29;64.57;96097.94;10512965;28;20040;-66
2023/11/04 21:41:43;;;;;;;2.03;1.00;;;;;;;10.42;64.23;96103.31;10513309;28;20068;-65
2023/11/04 21:46:45;;;;;;;0.68;0.60;;;;;;;10.49;64.00;96117.28;10512947;28;20169;-65
2023/11/04 21:51:47;;;;;;;1.05;0.50;;;;;;;10.50;63.70;96103.22;10513020;28;20145;-65
2023/11/04 21:56:49;;;;;;;3.20;1.40;;;;;;;10.57;63.20;96096.25;10513195;28;20071;-66
2023/11/04 22:01:51;;;;;;;4.15;0.93;;;;;;;10.60;62.80;96101.13;10511890;28;20059;-65
2023/11/04 22:06:55;;;;;;;0.65;0.55;;;;;;;10.44;62.79;96096.09;10509020;28;20074;-66
2023/11/04 22:11:57;;;;;;;2.00;0.80;;;;;;;10.27;62.64;96105.16;10514630;28;20156;-65
2023/11/04 22:16:59;;;;;;;2.17;0.80;;;;;;;10.48;62.74;96116.47;10509699;28;20707;-65
2023/11/04 22:22:01;;;;;;;0.60;0.60;;;;;;;10.58;62.41;96113.56;10510160;28;20139;-66
2023/11/04 22:27:03;;;;;;;4.25;1.42;;;;;;;10.55;62.39;96111.31;10492177;28;20040;-65
2023/11/04 22:32:05;;;;;;;1.85;0.80;;;;;;;10.49;61.57;96117.28;10515013;28;20080;-66
2023/11/04 22:37:08;;;;;;;4.30;0.70;;;;;;;10.60;62.03;96114.19;10509723;28;20291;-66
2023/11/04 22:42:10;;;;;;;2.78;0.60;;;;;;;10.63;61.73;96105.97;10514686;28;20048;-66
2023/11/04 22:47:12;;;;;;;2.85;1.48;;;;;;;10.77;61.37;96105.13;10531267;28;20129;-65
2023/11/04 22:52:14;;;;;;;2.47;0.80;;;;;;;10.78;61.22;96100.72;10514170;28;20055;-66
2023/11/04 22:57:16;;;;;;;1.33;1.02;;;;;;;10.73;61.19;96088.19;10510401;28;20166;-66
2023/11/04 23:02:18;;;;;;;1.13;1.00;;;;;;;10.46;61.55;96081.09;10510708;28;20074;-66
2023/11/04 23:07:20;;;;;;;1.88;0.70;;;;;;;10.37;61.78;96103.88;10510304;28;20630;-66
2023/11/04 23:12:22;;;;;;;2.75;0.63;;;;;;;10.10;62.12;96099.31;10513191;28;20603;-65
2023/11/04 23:17:24;;;;;;;2.22;0.80;;;;;;;10.03;62.44;96110.66;10511881;28;20089;-66
2023/11/04 23:22:26;;;;;;;1.42;0.85;;;;;;;10.11;62.46;96108.78;10493670;28;20052;-66
2023/11/04 23:27:28;;;;;;;2.50;0.90;;;;;;;10.10;62.24;96109.75;10512464;28;20150;-65
2023/11/04 23:32:30;;;;;;;2.55;1.25;;;;;;;10.04;62.44;96107.06;10508475;28;20076;-65
2023/11/04 23:37:32;;;;;;;1.92;0.70;;;;;;;10.12;62.31;96091.28;10510879;28;20856;-66
2023/11/04 23:42:34;;;;;;;1.98;1.02;;;;;;;10.23;62.24;96086.44;10511055;28;20047;-66
2023/11/04 23:47:36;;;;;;;3.88;1.25;;;;;;;10.31;62.26;96082.91;10511664;28;20056;-64
2023/11/04 23:52:38;;;;;;;0.77;0.57;;;;;;;10.31;61.92;96078.50;10495489;28;20048;-66
2023/11/04 23:57:40;;;;;;;2.75;1.10;;;;;;;10.42;62.16;96064.13;10517274;28;20075;-66
